createdAt,value
2022-11-12T00:01:21.571Z,78.78
2022-11-12T00:03:49.950Z,78.31
2022-11-12T00:06:18.085Z,78.73
2022-11-12T00:08:46.174Z,78.98
2022-11-12T00:11:14.284Z,78.99
2022-11-12T00:13:42.387Z,78.04
2022-11-12T00:16:12.085Z,77.74
2022-11-12T00:18:40.185Z,77.53
2022-11-12T00:21:08.301Z,77.46
2022-11-12T00:23:36.420Z,77.93
2022-11-12T00:26:04.634Z,78.24
2022-11-12T00:28:37.748Z,78.40
2022-11-12T00:31:13.107Z,78.85
2022-11-12T00:33:42.512Z,79.03
2022-11-12T00:36:11.393Z,79.59
2022-11-12T00:38:39.700Z,79.17
2022-11-12T00:41:08.391Z,79.47
2022-11-12T00:43:36.595Z,79.86
2022-11-12T00:46:05.219Z,80.44
2022-11-12T00:48:34.690Z,80.81
2022-11-12T00:51:05.695Z,81.08
2022-11-12T00:53:34.264Z,81.14
2022-11-12T00:56:04.467Z,81.28
2022-11-12T00:58:33.768Z,81.49
2022-11-12T01:01:10.326Z,81.80
2022-11-12T01:03:41.358Z,81.96
2022-11-12T01:06:13.288Z,82.01
2022-11-12T01:08:42.910Z,81.71
2022-11-12T01:11:13.925Z,81.28
2022-11-12T01:13:45.727Z,81.17
2022-11-12T01:16:16.331Z,81.27
2022-11-12T01:18:45.976Z,81.60
2022-11-12T01:21:15.680Z,81.66
2022-11-12T01:23:44.437Z,81.84
2022-11-12T01:26:16.127Z,81.69
2022-11-12T01:28:44.946Z,81.15
2022-11-12T01:31:16.292Z,80.79
2022-11-12T01:33:49.888Z,80.67
2022-11-12T01:36:20.003Z,81.01
2022-11-12T01:38:49.329Z,80.58
2022-11-12T01:41:21.662Z,80.48
2022-11-12T01:44:05.085Z,80.25
2022-11-12T01:46:36.024Z,80.34
2022-11-12T01:49:13.230Z,80.48
2022-11-12T01:51:47.982Z,80.97
2022-11-12T01:54:21.591Z,81.11
2022-11-12T01:56:52.412Z,80.78
2022-11-12T01:59:30.971Z,81.06
2022-11-12T02:01:59.679Z,80.83
2022-11-12T02:04:30.523Z,80.81
2022-11-12T02:07:00.186Z,81.30
2022-11-12T02:09:29.138Z,81.42
2022-11-12T02:11:57.492Z,81.87
2022-11-12T02:14:24.659Z,82.09
2022-11-12T02:16:53.027Z,82.33
2022-11-12T02:19:21.143Z,82.29
2022-11-12T02:21:50.591Z,82.42
2022-11-12T02:24:36.808Z,82.45
2022-11-12T02:27:07.096Z,82.21
2022-11-12T02:29:35.190Z,81.98
2022-11-12T02:32:03.316Z,81.94
2022-11-12T02:34:31.382Z,81.96
2022-11-12T02:37:00.835Z,81.77
2022-11-12T02:39:28.920Z,81.59
2022-11-12T02:41:57.093Z,81.83
2022-11-12T02:44:25.295Z,81.87
2022-11-12T02:46:53.425Z,81.86
2022-11-12T02:49:21.485Z,81.55
2022-11-12T02:51:49.604Z,81.18
2022-11-12T02:54:19.050Z,80.69
2022-11-12T02:56:47.157Z,80.11
2022-11-12T02:59:15.287Z,80.18
2022-11-12T03:01:43.467Z,80.14
2022-11-12T03:04:11.574Z,80.59
2022-11-12T03:06:39.943Z,79.98
2022-11-12T03:09:08.156Z,79.72
2022-11-12T03:11:37.587Z,79.94
2022-11-12T03:14:06.534Z,80.34
2022-11-12T03:16:34.621Z,80.62
2022-11-12T03:19:03.032Z,80.64
2022-11-12T03:21:31.151Z,80.93
2022-11-12T03:23:59.278Z,80.87
2022-11-12T03:26:30.537Z,80.28
2022-11-12T03:29:02.566Z,80.48
2022-11-12T03:31:30.953Z,80.85
2022-11-12T03:33:59.056Z,80.94
2022-11-12T03:36:27.196Z,81.06
2022-11-12T03:38:55.288Z,80.83
2022-11-12T03:41:23.396Z,80.81
2022-11-12T03:43:51.472Z,80.97
2022-11-12T03:46:20.946Z,80.87
2022-11-12T03:48:49.029Z,80.64
2022-11-12T03:51:18.558Z,80.10
2022-11-12T03:53:46.635Z,79.36
2022-11-12T03:56:14.756Z,79.05
2022-11-12T03:58:42.840Z,78.94
2022-11-12T04:01:10.910Z,79.30
2022-11-12T04:03:40.493Z,79.37
2022-11-12T04:06:32.449Z,79.93
2022-11-12T04:09:00.515Z,80.58
2022-11-12T04:11:28.589Z,80.85
2022-11-12T04:13:55.704Z,80.71
2022-11-12T04:16:42.155Z,80.62
2022-11-12T04:19:43.440Z,80.90
2022-11-12T04:22:12.924Z,81.23
2022-11-12T04:25:01.340Z,81.45
2022-11-12T04:27:31.891Z,81.56
2022-11-12T04:30:18.804Z,81.71
2022-11-12T04:32:54.461Z,81.34
2022-11-12T04:35:26.353Z,81.45
2022-11-12T04:37:55.156Z,81.54
2022-11-12T04:40:43.516Z,80.99
2022-11-12T04:43:30.999Z,81.07
2022-11-12T04:46:00.914Z,81.19
2022-11-12T04:48:29.973Z,81.61
2022-11-12T04:51:03.062Z,82.05
2022-11-12T04:53:32.127Z,82.28
2022-11-12T04:56:00.834Z,82.38
2022-11-12T04:58:29.329Z,82.43
2022-11-12T05:00:57.716Z,81.96
2022-11-12T05:03:25.949Z,82.04
2022-11-12T05:05:53.999Z,82.24
2022-11-12T05:08:23.825Z,82.70
2022-11-12T05:10:52.057Z,82.73
2022-11-12T05:13:20.140Z,82.61
2022-11-12T05:15:48.242Z,83.03
2022-11-12T05:18:16.347Z,83.39
2022-11-12T05:20:44.447Z,83.76
2022-11-12T05:23:12.557Z,84.03
2022-11-12T05:25:42.018Z,84.33
2022-11-12T05:28:10.087Z,84.66
2022-11-12T05:30:38.168Z,84.94
2022-11-12T05:33:06.287Z,84.95
2022-11-12T05:35:34.402Z,84.99
2022-11-12T05:38:02.483Z,85.09
2022-11-12T05:40:30.562Z,84.91
2022-11-12T05:42:59.972Z,84.96
2022-11-12T05:45:28.079Z,84.74
2022-11-12T05:47:56.155Z,84.58
2022-11-12T05:50:24.267Z,84.18
2022-11-12T05:52:52.923Z,84.45
2022-11-12T05:55:21.032Z,85.04
2022-11-12T05:57:49.112Z,85.35
2022-11-12T06:00:19.497Z,85.84
2022-11-12T06:02:47.731Z,85.99
2022-11-12T06:05:16.025Z,86.41
2022-11-12T06:07:44.119Z,86.33
2022-11-12T06:10:17.469Z,86.59
2022-11-12T06:12:48.321Z,86.72
2022-11-12T06:15:17.915Z,86.32
2022-11-12T06:17:46.138Z,85.77
2022-11-12T06:20:14.902Z,85.58
2022-11-12T06:22:43.008Z,85.66
2022-11-12T06:25:11.163Z,85.75
2022-11-12T06:27:39.219Z,85.60
2022-11-12T06:30:10.075Z,85.55
2022-11-12T06:32:39.539Z,85.97
2022-11-12T06:35:08.928Z,86.49
2022-11-12T06:37:37.044Z,87.19
2022-11-12T06:40:06.171Z,87.30
2022-11-12T06:42:34.632Z,87.77
2022-11-12T06:45:02.774Z,88.01
2022-11-12T06:47:30.888Z,87.81
2022-11-12T06:50:00.720Z,87.65
2022-11-12T06:52:28.767Z,87.20
2022-11-12T06:54:56.848Z,86.92
2022-11-12T06:57:24.994Z,86.31
2022-11-12T06:59:53.100Z,85.96
2022-11-12T07:02:21.222Z,85.38
2022-11-12T07:04:49.332Z,85.36
2022-11-12T07:07:18.901Z,85.60
2022-11-12T07:09:47.027Z,86.05
2022-11-12T07:12:15.237Z,86.11
2022-11-12T07:14:43.318Z,86.34
2022-11-12T07:17:11.403Z,86.69
2022-11-12T07:19:39.482Z,86.55
2022-11-12T07:22:07.561Z,86.22
2022-11-12T07:24:37.015Z,84.78
2022-11-12T07:27:05.349Z,84.42
2022-11-12T07:29:46.865Z,83.89
2022-11-12T07:32:16.396Z,83.98
2022-11-12T07:34:44.532Z,83.80
2022-11-12T07:37:12.599Z,83.76
2022-11-12T07:39:42.118Z,83.41
2022-11-12T07:42:10.225Z,83.18
2022-11-12T07:44:38.356Z,82.85
2022-11-12T07:47:06.515Z,82.74
2022-11-12T07:49:34.601Z,82.32
2022-11-12T07:52:02.789Z,81.80
2022-11-12T07:54:30.910Z,80.70
2022-11-12T07:57:00.381Z,79.93
2022-11-12T07:59:28.513Z,79.50
2022-11-12T08:01:56.814Z,78.61
2022-11-12T08:04:24.955Z,77.83
2022-11-12T08:06:53.490Z,77.53
2022-11-12T08:09:21.643Z,76.85
2022-11-12T08:11:49.765Z,75.74
2022-11-12T08:14:19.202Z,75.33
2022-11-12T08:16:47.659Z,75.05
2022-11-12T08:19:15.754Z,73.43
2022-11-12T08:21:44.544Z,72.85
2022-11-12T08:24:12.862Z,72.76
2022-11-12T08:26:40.989Z,72.62
2022-11-12T08:29:09.346Z,71.73
2022-11-12T08:31:38.962Z,71.13
2022-11-12T08:34:15.065Z,70.88
2022-11-12T08:36:45.482Z,69.85
2022-11-12T08:39:13.596Z,69.90
2022-11-12T08:41:41.691Z,69.03
2022-11-12T08:44:09.747Z,68.64
2022-11-12T08:46:39.286Z,68.46
2022-11-12T08:49:07.380Z,67.80
2022-11-12T08:51:35.515Z,67.56
2022-11-12T08:54:03.651Z,67.89
2022-11-12T08:56:31.918Z,66.93
2022-11-12T08:59:03.744Z,66.43
2022-11-12T09:01:34.517Z,66.12
2022-11-12T09:04:04.055Z,65.52
2022-11-12T09:06:32.170Z,64.68
2022-11-12T09:09:00.252Z,63.77
2022-11-12T09:11:28.370Z,64.01
2022-11-12T09:13:56.660Z,64.55
2022-11-12T09:16:25.174Z,65.19
2022-11-12T09:18:53.243Z,64.93
2022-11-12T09:21:24.818Z,65.13
2022-11-12T09:23:53.076Z,65.74
2022-11-12T09:26:21.213Z,66.05
2022-11-12T09:28:49.369Z,66.52
2022-11-12T09:31:17.537Z,67.03
2022-11-12T09:33:45.657Z,67.45
2022-11-12T09:36:13.908Z,67.35
2022-11-12T09:38:43.350Z,66.77
2022-11-12T09:41:34.099Z,66.04
2022-11-12T09:44:06.525Z,66.00
2022-11-12T09:46:46.443Z,65.66
2022-11-12T09:49:22.108Z,65.53
2022-11-12T09:51:56.367Z,65.40
2022-11-12T09:54:29.482Z,64.73
2022-11-12T09:56:57.741Z,64.57
2022-11-12T09:59:33.001Z,64.33
2022-11-12T10:02:24.499Z,63.74
2022-11-12T10:05:16.637Z,63.01
2022-11-12T10:08:03.398Z,62.78
2022-11-12T10:10:46.699Z,62.42
2022-11-12T10:13:37.265Z,61.98
2022-11-12T10:16:42.776Z,61.78
2022-11-12T10:19:42.063Z,61.08
2022-11-12T10:22:34.656Z,60.82
2022-11-12T10:25:17.627Z,60.81
2022-11-12T10:27:49.310Z,60.54
2022-11-12T10:30:21.025Z,60.56
2022-11-12T10:32:51.486Z,60.47
2022-11-12T10:35:24.048Z,60.56
2022-11-12T10:38:00.038Z,59.38
2022-11-12T10:40:34.851Z,59.39
2022-11-12T10:43:07.580Z,59.53
2022-11-12T10:45:36.282Z,59.29
2022-11-12T10:48:04.669Z,59.67
2022-11-12T10:50:41.001Z,59.85
2022-11-12T10:53:13.419Z,60.47
2022-11-12T10:55:59.601Z,60.44
2022-11-12T10:58:29.529Z,60.67
2022-11-12T11:01:04.922Z,60.79
2022-11-12T11:03:37.377Z,60.75
2022-11-12T11:06:08.971Z,60.78
2022-11-12T11:08:41.492Z,60.79
2022-11-12T11:11:29.194Z,59.90
2022-11-12T11:14:25.571Z,59.65
2022-11-12T11:16:57.603Z,59.07
2022-11-12T11:19:34.898Z,58.44
2022-11-12T11:22:24.508Z,57.49
2022-11-12T11:25:11.496Z,57.08
2022-11-12T11:27:57.525Z,57.60
2022-11-12T11:30:27.542Z,58.26
2022-11-12T11:33:26.732Z,58.73
2022-11-12T11:36:08.211Z,59.48
2022-11-12T11:38:57.588Z,60.23
2022-11-12T11:41:55.542Z,60.90
2022-11-12T11:44:40.696Z,61.30
2022-11-12T11:47:34.301Z,61.59
2022-11-12T11:50:29.101Z,61.81
2022-11-12T11:53:16.949Z,61.97
2022-11-12T11:55:57.183Z,61.83
2022-11-12T11:58:55.530Z,62.16
2022-11-12T12:01:36.768Z,62.42
2022-11-12T12:04:43.674Z,62.32
2022-11-12T12:07:29.017Z,62.25
2022-11-12T12:10:09.530Z,62.30
2022-11-12T12:12:56.142Z,62.39
2022-11-12T12:15:53.260Z,62.77
2022-11-12T12:18:37.877Z,63.03
2022-11-12T12:21:16.371Z,63.29
2022-11-12T12:23:53.095Z,63.41
2022-11-12T12:26:28.208Z,63.29
2022-11-12T12:29:03.046Z,62.79
2022-11-12T12:31:38.419Z,62.33
2022-11-12T12:34:19.209Z,62.18
2022-11-12T12:36:55.839Z,61.59
2022-11-12T12:39:30.719Z,61.04
2022-11-12T12:42:06.283Z,60.38
2022-11-12T12:45:01.407Z,59.86
2022-11-12T12:47:37.681Z,59.60
2022-11-12T12:50:13.894Z,59.62
2022-11-12T12:53:04.219Z,59.60
2022-11-12T12:55:42.361Z,59.31
2022-11-12T12:58:27.759Z,59.53
2022-11-12T13:01:04.093Z,59.69
2022-11-12T13:03:56.337Z,59.24
2022-11-12T13:06:29.661Z,59.27
2022-11-12T13:09:07.289Z,59.51
2022-11-12T13:12:13.574Z,59.75
2022-11-12T13:15:41.344Z,59.76
2022-11-12T13:18:16.887Z,59.99
2022-11-12T13:21:12.160Z,59.95
2022-11-12T13:24:04.229Z,59.90
2022-11-12T13:26:56.068Z,60.09
2022-11-12T13:29:47.381Z,60.18
2022-11-12T13:32:41.768Z,60.02
2022-11-12T13:35:29.682Z,60.25
2022-11-12T13:38:04.075Z,60.54
2022-11-12T13:40:46.148Z,61.03
2022-11-12T13:43:34.621Z,61.52
2022-11-12T13:46:28.727Z,61.69
2022-11-12T13:49:01.539Z,61.89
2022-11-12T13:51:41.182Z,62.23
2022-11-12T13:54:34.274Z,62.84
2022-11-12T13:57:17.371Z,63.56
2022-11-12T13:59:47.934Z,63.68
2022-11-12T14:02:24.040Z,64.01
2022-11-12T14:04:53.315Z,64.29
2022-11-12T14:07:44.486Z,64.71
2022-11-12T14:10:33.972Z,64.65
2022-11-12T14:13:27.894Z,64.97
2022-11-12T14:16:23.766Z,64.94
2022-11-12T14:19:18.199Z,65.04
2022-11-12T14:22:01.798Z,65.26
2022-11-12T14:24:33.100Z,65.86
2022-11-12T14:27:02.546Z,65.99
2022-11-12T14:29:35.308Z,66.25
2022-11-12T14:32:09.841Z,66.58
2022-11-12T14:34:37.987Z,67.23
2022-11-12T14:37:06.178Z,67.74
2022-11-12T14:39:35.442Z,68.28
2022-11-12T14:42:05.199Z,68.62
2022-11-12T14:44:37.867Z,68.66
2022-11-12T14:47:06.263Z,69.04
2022-11-12T14:49:44.023Z,69.85
2022-11-12T14:52:19.385Z,70.58
2022-11-12T14:54:54.757Z,71.32
2022-11-12T14:57:28.125Z,71.17
2022-11-12T14:59:56.948Z,71.49
2022-11-12T15:02:52.238Z,71.99
2022-11-12T15:05:23.414Z,72.56
2022-11-12T15:07:58.051Z,73.15
2022-11-12T15:10:33.595Z,73.80
2022-11-12T15:13:08.005Z,74.36
2022-11-12T15:15:39.879Z,74.91
2022-11-12T15:18:17.308Z,75.45
2022-11-12T15:20:45.564Z,76.03
2022-11-12T15:23:19.692Z,76.64
2022-11-12T15:25:59.041Z,77.19
2022-11-12T15:28:29.123Z,77.00
2022-11-12T15:31:17.616Z,77.00
2022-11-12T15:33:45.802Z,77.69
2022-11-12T15:36:20.485Z,78.27
2022-11-12T15:38:51.699Z,79.04
2022-11-12T15:41:30.430Z,79.63
2022-11-12T15:44:00.893Z,80.20
2022-11-12T15:46:29.076Z,80.92
2022-11-12T15:48:57.200Z,81.27
2022-11-12T15:51:25.348Z,81.66
2022-11-12T15:53:53.450Z,82.26
2022-11-12T15:56:22.246Z,81.93
2022-11-12T15:58:50.481Z,82.13
2022-11-12T16:01:20.087Z,82.14
2022-11-12T16:03:48.228Z,82.55
2022-11-12T16:06:16.370Z,83.06
2022-11-12T16:08:44.544Z,83.70
2022-11-12T16:11:28.466Z,84.14
2022-11-12T16:13:56.655Z,84.67
2022-11-12T16:16:26.199Z,85.07
2022-11-12T16:18:54.322Z,85.17
2022-11-12T16:21:22.452Z,85.42
2022-11-12T16:23:50.715Z,85.75
2022-11-12T16:26:26.132Z,85.81
2022-11-12T16:28:54.243Z,85.91
2022-11-12T16:31:22.801Z,85.78
2022-11-12T16:33:52.321Z,85.58
2022-11-12T16:36:20.751Z,85.46
2022-11-12T16:38:48.932Z,85.34
2022-11-12T16:41:17.065Z,84.71
2022-11-12T16:43:45.180Z,84.42
2022-11-12T16:46:26.045Z,84.02
2022-11-12T16:48:55.812Z,84.30
2022-11-12T16:51:25.457Z,84.32
2022-11-12T16:53:53.562Z,84.45
2022-11-12T16:56:23.931Z,84.19
2022-11-12T16:58:52.085Z,84.30
2022-11-12T17:01:26.903Z,84.58
2022-11-12T17:03:57.896Z,84.65
2022-11-12T17:06:34.862Z,85.02
2022-11-12T17:09:03.218Z,85.56
2022-11-12T17:11:31.641Z,85.60
2022-11-12T17:14:01.105Z,85.72
2022-11-12T17:16:30.127Z,85.78
2022-11-12T17:19:02.328Z,85.68
2022-11-12T17:21:31.243Z,85.53
2022-11-12T17:23:59.376Z,85.37
2022-11-12T17:26:27.520Z,84.83
2022-11-12T17:29:01.072Z,84.52
2022-11-12T17:31:30.615Z,84.55
2022-11-12T17:34:00.132Z,84.18
2022-11-12T17:36:29.206Z,84.05
2022-11-12T17:38:58.551Z,84.23
2022-11-12T17:41:28.917Z,84.21
2022-11-12T17:43:58.129Z,84.19
2022-11-12T17:46:27.054Z,84.16
2022-11-12T17:48:56.532Z,83.85
2022-11-12T17:51:29.463Z,83.77
2022-11-12T17:53:57.616Z,83.60
2022-11-12T17:56:26.033Z,83.62
2022-11-12T17:58:54.653Z,83.37
2022-11-12T18:01:25.891Z,83.38
2022-11-12T18:03:57.048Z,83.03
2022-11-12T18:06:28.863Z,83.29
2022-11-12T18:08:59.563Z,83.10
2022-11-12T18:11:29.847Z,82.87
2022-11-12T18:13:58.296Z,83.05
2022-11-12T18:16:28.818Z,83.19
2022-11-12T18:18:58.530Z,83.11
2022-11-12T18:21:28.893Z,83.27
2022-11-12T18:23:57.009Z,83.33
2022-11-12T18:26:25.293Z,83.54
2022-11-12T18:28:53.969Z,83.66
2022-11-12T18:31:23.954Z,83.87
2022-11-12T18:33:52.706Z,83.87
2022-11-12T18:36:24.185Z,84.03
2022-11-12T18:38:55.368Z,84.08
2022-11-12T18:41:26.938Z,84.29
2022-11-12T18:43:55.860Z,84.46
2022-11-12T18:46:24.764Z,84.81
2022-11-12T18:48:52.883Z,84.82
2022-11-12T18:51:21.280Z,85.03
2022-11-12T18:53:49.572Z,84.94
2022-11-12T18:56:21.885Z,85.16
2022-11-12T18:58:50.367Z,84.92
2022-11-12T19:01:23.015Z,84.83
2022-11-12T19:03:56.320Z,85.42
2022-11-12T19:06:25.654Z,85.27
2022-11-12T19:08:59.891Z,85.61
2022-11-12T19:11:29.459Z,85.79
2022-11-12T19:13:57.702Z,85.82
2022-11-12T19:16:25.963Z,85.78
2022-11-12T19:18:54.241Z,85.71
2022-11-12T19:21:24.874Z,86.04
2022-11-12T19:23:55.943Z,86.23
2022-11-12T19:26:24.889Z,86.61
2022-11-12T19:28:55.123Z,86.85
2022-11-12T19:31:25.813Z,86.93
2022-11-12T19:33:53.924Z,86.99
2022-11-12T19:36:24.818Z,87.17
2022-11-12T19:38:56.706Z,86.53
2022-11-12T19:41:25.903Z,85.84
2022-11-12T19:43:55.795Z,85.18
2022-11-12T19:46:25.215Z,85.20
2022-11-12T19:48:53.374Z,84.67
2022-11-12T19:51:21.554Z,84.17
2022-11-12T19:53:50.886Z,84.56
2022-11-12T19:56:21.450Z,84.49
2022-11-12T19:58:53.489Z,84.60
2022-11-12T20:01:23.161Z,84.57
2022-11-12T20:03:51.529Z,84.83
2022-11-12T20:06:23.312Z,85.08
2022-11-12T20:08:51.420Z,84.58
2022-11-12T20:11:19.822Z,84.47
2022-11-12T20:13:47.955Z,84.69
2022-11-12T20:16:24.990Z,84.25
2022-11-12T20:18:56.814Z,83.47
2022-11-12T20:21:26.586Z,83.82
2022-11-12T20:23:54.693Z,83.89
2022-11-12T20:26:23.699Z,84.18
2022-11-12T20:28:51.851Z,84.27
2022-11-12T20:31:21.645Z,84.54
2022-11-12T20:33:51.326Z,84.74
2022-11-12T20:36:23.037Z,84.54
2022-11-12T20:38:53.323Z,84.94
2022-11-12T20:41:23.720Z,85.19
2022-11-12T20:43:54.457Z,85.35
2022-11-12T20:46:22.888Z,85.71
2022-11-12T20:48:51.110Z,85.72
2022-11-12T20:51:24.964Z,85.88
2022-11-12T20:53:59.388Z,86.10
2022-11-12T20:56:30.356Z,86.23
2022-11-12T20:58:59.713Z,86.37
2022-11-12T21:01:30.386Z,86.28
2022-11-12T21:03:59.327Z,86.54
2022-11-12T21:06:30.088Z,86.34
2022-11-12T21:09:00.621Z,86.82
2022-11-12T21:11:28.806Z,87.24
2022-11-12T21:13:56.984Z,87.48
2022-11-12T21:16:25.409Z,87.68
2022-11-12T21:18:53.503Z,87.67
2022-11-12T21:21:21.857Z,87.54
2022-11-12T21:23:53.875Z,87.82
2022-11-12T21:26:23.792Z,87.83
2022-11-12T21:28:53.920Z,88.02
2022-11-12T21:31:24.767Z,88.11
2022-11-12T21:33:55.305Z,87.98
2022-11-12T21:36:23.997Z,87.79
2022-11-12T21:38:53.488Z,87.60
2022-11-12T21:41:24.889Z,87.41
2022-11-12T21:43:53.524Z,87.18
2022-11-12T21:46:24.679Z,87.43
2022-11-12T21:48:55.748Z,87.35
2022-11-12T21:51:26.614Z,87.26
2022-11-12T21:53:58.398Z,87.05
2022-11-12T21:56:27.664Z,86.96
2022-11-12T21:58:59.382Z,86.79
2022-11-12T22:01:30.232Z,86.75
2022-11-12T22:03:59.866Z,86.41
2022-11-12T22:06:33.934Z,86.05
2022-11-12T22:09:03.628Z,86.01
2022-11-12T22:11:31.980Z,86.21
2022-11-12T22:14:00.144Z,86.59
2022-11-12T22:16:30.509Z,86.98
2022-11-12T22:19:00.448Z,86.82
2022-11-12T22:21:34.256Z,86.68
2022-11-12T22:24:10.542Z,86.50
2022-11-12T22:26:38.825Z,86.37
2022-11-12T22:29:07.134Z,86.29
2022-11-12T22:31:35.273Z,86.34
2022-11-12T22:34:04.266Z,86.07
2022-11-12T22:36:35.818Z,85.70
2022-11-12T22:39:07.328Z,85.67
2022-11-12T22:41:35.446Z,85.60
2022-11-12T22:44:04.661Z,85.77
2022-11-12T22:46:35.984Z,85.75
2022-11-12T22:49:05.882Z,85.77
2022-11-12T22:51:35.446Z,86.21
2022-11-12T22:54:06.578Z,86.23
2022-11-12T22:56:36.752Z,86.59
2022-11-12T22:59:05.081Z,86.65
2022-11-12T23:01:36.179Z,86.92
2022-11-12T23:04:07.266Z,87.08
2022-11-12T23:06:35.824Z,87.38
2022-11-12T23:09:05.849Z,87.02
2022-11-12T23:11:37.514Z,87.22
2022-11-12T23:14:05.659Z,87.60
2022-11-12T23:16:35.228Z,87.88
2022-11-12T23:19:03.766Z,87.92
2022-11-12T23:21:32.271Z,88.20
2022-11-12T23:24:00.893Z,88.30
2022-11-12T23:26:32.107Z,87.98
2022-11-12T23:29:02.365Z,88.11
2022-11-12T23:31:32.326Z,88.32
2022-11-12T23:34:01.312Z,88.32
2022-11-12T23:36:30.482Z,88.11
2022-11-12T23:38:59.938Z,88.25
2022-11-12T23:41:28.930Z,88.15
2022-11-12T23:43:59.019Z,88.23
2022-11-12T23:46:28.532Z,88.42
2022-11-12T23:48:57.026Z,88.23
2022-11-12T23:51:25.880Z,88.11
2022-11-12T23:53:54.039Z,88.42
2022-11-12T23:56:22.182Z,88.60
2022-11-12T23:58:50.296Z,88.60
